Time;durP1;ratioP1;P1;durP2;ratioP2;P2;SDS_P1;SDS_P2;PMS_P1;PMS_P2;Temp;Humidity;BMP_temperature;BMP_pressure;BME280_temperature;BME280_humidity;BME280_pressure;Samples;Min_cycle;Max_cycle;Signal;HPM_P1;HPM_P2
2021/11/10 00:01:46;;;;;;;0.10;0.10;;;2.90;99.90;;;;;;5071677;28;20189;-77
2021/11/10 00:04:12;;;;;;;0.20;0.20;;;2.90;99.90;;;;;;5067561;28;20169;-77
2021/11/10 00:06:38;;;;;;;0.63;0.57;;;2.90;99.90;;;;;;5050373;28;20168;-77
2021/11/10 00:09:05;;;;;;;0.10;0.10;;;2.90;99.90;;;;;;5050506;28;20167;-77
2021/11/10 00:11:32;;;;;;;0.10;0.10;;;2.80;99.90;;;;;;5049234;28;20197;-77
2021/11/10 00:13:59;;;;;;;0.20;0.20;;;2.80;99.90;;;;;;5050112;28;20166;-77
2021/11/10 00:16:26;;;;;;;0.85;0.85;;;2.90;99.90;;;;;;5048298;28;20173;-77
2021/11/10 00:18:55;;;;;;;0.13;0.13;;;2.80;99.90;;;;;;5050746;28;20211;-77
2021/11/10 00:21:23;;;;;;;0.30;0.30;;;2.70;99.90;;;;;;5050834;28;20181;-77
2021/11/10 00:23:49;;;;;;;1.58;1.48;;;2.80;99.90;;;;;;5050631;28;20167;-77
2021/11/10 00:26:15;;;;;;;0.45;0.45;;;2.80;99.90;;;;;;5050251;28;20158;-77
2021/11/10 00:28:41;;;;;;;0.75;0.75;;;2.90;99.90;;;;;;5050667;28;20168;-77
2021/11/10 00:31:07;;;;;;;0.10;0.10;;;2.90;99.90;;;;;;5050193;28;20198;-77
2021/11/10 00:33:33;;;;;;;0.20;0.20;;;3.00;99.90;;;;;;5050142;28;20162;-77
2021/11/10 00:35:59;;;;;;;0.45;0.45;;;3.00;99.90;;;;;;5048475;28;20172;-78
2021/11/10 00:38:25;;;;;;;0.20;0.20;;;3.10;99.90;;;;;;5049767;28;20195;-76
2021/11/10 00:40:51;;;;;;;0.10;0.10;;;3.00;99.90;;;;;;5050047;28;20156;-77
2021/11/10 00:43:17;;;;;;;0.35;0.35;;;3.00;99.90;;;;;;5049998;28;20213;-77
2021/11/10 00:45:43;;;;;;;0.10;0.10;;;3.00;99.90;;;;;;5048282;28;20169;-78
2021/11/10 00:48:12;;;;;;;0.25;0.25;;;2.90;99.90;;;;;;5049819;28;20165;-76
2021/11/10 00:50:38;;;;;;;0.25;0.25;;;2.90;99.90;;;;;;5049870;28;20158;-76
2021/11/10 00:53:06;;;;;;;0.30;0.30;;;2.90;99.90;;;;;;5053607;28;20208;-76
2021/11/10 00:55:32;;;;;;;0.10;0.10;;;2.90;99.90;;;;;;5069059;28;20223;-77
2021/11/10 00:57:58;;;;;;;0.10;0.10;;;2.90;99.90;;;;;;5069716;28;20196;-77
2021/11/10 01:00:27;;;;;;;0.10;0.10;;;2.90;99.90;;;;;;5068443;28;20199;-76
2021/11/10 01:02:53;;;;;;;0.22;0.22;;;2.90;99.90;;;;;;5069634;28;20224;-77
2021/11/10 01:05:20;;;;;;;0.10;0.10;;;2.90;99.90;;;;;;5068444;28;20192;-76
2021/11/10 01:07:46;;;;;;;0.28;0.28;;;2.90;99.90;;;;;;5068293;28;20164;-76
2021/11/10 01:10:13;;;;;;;0.52;0.52;;;2.90;99.90;;;;;;5068209;28;20518;-76
2021/11/10 01:12:39;;;;;;;0.10;0.10;;;2.90;99.90;;;;;;5069594;28;20348;-78
2021/11/10 01:15:09;;;;;;;0.10;0.10;;;2.90;99.90;;;;;;5068096;28;20194;-77
2021/11/10 01:17:36;;;;;;;0.20;0.20;;;2.90;99.90;;;;;;5069391;28;20157;-77
2021/11/10 01:20:04;;;;;;;0.50;0.50;;;2.80;99.90;;;;;;5069451;28;20165;-78
2021/11/10 01:22:30;;;;;;;0.40;0.40;;;2.80;99.90;;;;;;5069339;28;20183;-78
2021/11/10 01:24:56;;;;;;;0.40;0.40;;;2.80;99.90;;;;;;5069040;28;20156;-76
2021/11/10 01:27:22;;;;;;;0.10;0.10;;;2.80;99.90;;;;;;5069259;28;20168;-76
2021/11/10 01:29:48;;;;;;;0.10;0.10;;;2.80;99.90;;;;;;5067955;28;20571;-77
2021/11/10 01:32:14;;;;;;;0.43;0.43;;;2.80;99.90;;;;;;5069198;28;20184;-79
2021/11/10 01:34:39;;;;;;;0.10;0.10;;;2.80;99.90;;;;;;5069260;28;20648;-78
2021/11/10 01:37:06;;;;;;;0.10;0.10;;;2.70;99.90;;;;;;5067981;28;20231;-78
2021/11/10 01:39:32;;;;;;;0.10;0.10;;;2.80;99.90;;;;;;5069005;28;20271;-78
2021/11/10 01:42:03;;;;;;;0.85;0.85;;;2.70;99.90;;;;;;5069119;28;20187;-79
2021/11/10 01:44:31;;;;;;;1.05;1.05;;;2.50;99.90;;;;;;5069091;28;20157;-79
2021/11/10 01:46:59;;;;;;;0.30;0.30;;;2.60;99.90;;;;;;5067637;28;20193;-79
2021/11/10 01:49:25;;;;;;;0.10;0.10;;;2.60;99.90;;;;;;5068921;28;20153;-77
2021/11/10 01:51:54;;;;;;;0.10;0.10;;;2.50;99.90;;;;;;5067718;28;20243;-77
2021/11/10 01:54:23;;;;;;;2.47;1.65;;;2.60;99.90;;;;;;5067743;28;20172;-77
2021/11/10 01:56:50;;;;;;;0.45;0.45;;;2.50;99.90;;;;;;5067513;28;20236;-77
2021/11/10 01:59:30;;;;;;;0.10;0.10;;;2.50;99.90;;;;;;5067517;28;20219;-78
2021/11/10 02:01:58;;;;;;;0.77;0.77;;;2.40;99.90;;;;;;5067562;28;20160;-78
2021/11/10 02:04:27;;;;;;;0.32;0.32;;;2.40;99.90;;;;;;5067534;28;20164;-77
2021/11/10 02:06:53;;;;;;;0.10;0.10;;;2.30;99.90;;;;;;5068871;28;20193;-77
2021/11/10 02:09:23;;;;;;;0.20;0.20;;;2.30;99.90;;;;;;5068876;28;20157;-77
2021/11/10 02:11:51;;;;;;;0.10;0.10;;;2.30;99.90;;;;;;5067501;28;20244;-77
2021/11/10 02:14:22;;;;;;;0.10;0.10;;;2.30;99.90;;;;;;5068777;28;20163;-78
2021/11/10 02:16:49;;;;;;;0.40;0.40;;;2.20;99.90;;;;;;5067326;28;20207;-77
2021/11/10 02:19:16;;;;;;;0.22;0.22;;;2.10;99.90;;;;;;5067213;28;20566;-77
2021/11/10 02:21:47;;;;;;;0.63;0.63;;;2.20;99.90;;;;;;5067383;28;20173;-77
2021/11/10 02:24:14;;;;;;;0.10;0.10;;;2.10;99.90;;;;;;5067381;28;20201;-77
2021/11/10 02:26:44;;;;;;;0.10;0.10;;;2.00;99.90;;;;;;5067282;28;20204;-77
2021/11/10 02:29:23;;;;;;;0.20;0.20;;;2.10;99.90;;;;;;5067426;28;20240;-77
2021/11/10 02:31:51;;;;;;;1.55;1.17;;;2.10;99.90;;;;;;5068870;28;20161;-76
2021/11/10 02:34:18;;;;;;;2.22;2.13;;;2.20;99.90;;;;;;5068683;28;20191;-78
2021/11/10 02:36:44;;;;;;;0.10;0.10;;;2.10;99.90;;;;;;5070698;28;20199;-77
2021/11/10 02:39:30;;;;;;;0.10;0.10;;;2.10;99.90;;;;;;5072331;28;20219;-78
2021/11/10 02:41:57;;;;;;;0.10;0.10;;;2.10;99.90;;;;;;5071440;28;20184;-77
2021/11/10 02:44:23;;;;;;;0.65;0.65;;;2.10;99.90;;;;;;5071431;28;20160;-77
2021/11/10 02:46:52;;;;;;;0.13;0.13;;;2.10;99.90;;;;;;5071783;28;20192;-76
2021/11/10 02:49:20;;;;;;;0.13;0.13;;;2.00;99.90;;;;;;5071463;28;20231;-76
2021/11/10 02:52:13;;;;;;;2.45;1.75;;;2.00;99.90;;;;;;5072194;28;20161;-75
2021/11/10 02:55:08;;;;;;;1.48;1.38;;;2.00;99.90;;;;;;5069459;28;20204;-76
2021/11/10 02:57:35;;;;;;;0.10;0.10;;;1.80;99.90;;;;;;5049833;28;20204;-76
2021/11/10 03:00:06;;;;;;;0.13;0.13;;;1.80;99.90;;;;;;5033315;28;20177;-76
2021/11/10 03:02:32;;;;;;;0.10;0.10;;;1.70;99.90;;;;;;5050885;28;20192;-76
2021/11/10 03:04:59;;;;;;;0.10;0.10;;;1.70;99.90;;;;;;5070083;28;20187;-76
2021/11/10 03:07:26;;;;;;;0.10;0.10;;;1.80;99.90;;;;;;5052965;28;20181;-75
2021/11/10 03:09:52;;;;;;;0.10;0.10;;;1.70;99.90;;;;;;5053079;28;20179;-76
2021/11/10 03:12:19;;;;;;;0.38;0.38;;;1.70;99.90;;;;;;5053148;28;20592;-76
2021/11/10 03:14:46;;;;;;;1.35;1.00;;;1.80;99.90;;;;;;5052877;28;20278;-76
2021/11/10 03:17:15;;;;;;;0.82;0.82;;;1.70;99.90;;;;;;5059092;28;20200;-76
2021/11/10 03:19:42;;;;;;;0.60;0.60;;;1.70;99.90;;;;;;5049654;28;20200;-75
2021/11/10 03:22:10;;;;;;;1.85;0.75;;;1.80;99.90;;;;;;5049805;28;20259;-75
2021/11/10 03:24:36;;;;;;;0.00;0.00;;;1.70;99.90;;;;;;5049377;28;20185;-75
2021/11/10 03:27:03;;;;;;;0.10;0.10;;;1.70;99.90;;;;;;5049283;28;20208;-75
2021/11/10 03:29:29;;;;;;;0.32;0.32;;;1.70;99.90;;;;;;5032595;28;20598;-76
2021/11/10 03:31:55;;;;;;;1.25;1.25;;;1.60;99.90;;;;;;5049148;28;20165;-75
2021/11/10 03:34:21;;;;;;;0.10;0.10;;;1.70;99.90;;;;;;5056172;28;20203;-77
2021/11/10 03:36:48;;;;;;;0.88;0.88;;;1.70;99.90;;;;;;5071794;28;20220;-77
2021/11/10 03:39:16;;;;;;;0.00;0.00;;;1.70;99.90;;;;;;5071481;28;20646;-77
2021/11/10 03:41:43;;;;;;;0.10;0.10;;;1.80;99.90;;;;;;5070362;28;20160;-77
2021/11/10 03:44:09;;;;;;;0.10;0.10;;;1.80;99.90;;;;;;5071825;28;20160;-77
2021/11/10 03:46:37;;;;;;;0.40;0.40;;;1.80;99.90;;;;;;5070392;28;20242;-76
2021/11/10 03:49:04;;;;;;;0.20;0.20;;;1.80;99.90;;;;;;5069986;28;20535;-76
2021/11/10 03:51:30;;;;;;;0.10;0.10;;;1.70;99.90;;;;;;5070977;28;20184;-77
2021/11/10 03:53:57;;;;;;;0.20;0.20;;;1.80;99.90;;;;;;5069333;28;20165;-77
2021/11/10 03:56:23;;;;;;;0.10;0.10;;;1.70;99.90;;;;;;5067862;28;20245;-77
2021/11/10 03:58:50;;;;;;;0.30;0.30;;;1.70;99.90;;;;;;5069414;28;20192;-76
2021/11/10 04:01:16;;;;;;;2.58;2.47;;;1.80;99.90;;;;;;5070703;28;20176;-76
2021/11/10 04:03:42;;;;;;;0.20;0.20;;;1.60;99.90;;;;;;5070682;28;20157;-77
2021/11/10 04:06:09;;;;;;;0.20;0.20;;;1.60;99.90;;;;;;5070701;28;20317;-78
2021/11/10 04:08:35;;;;;;;0.80;0.57;;;1.60;99.90;;;;;;5069261;28;20214;-78
2021/11/10 04:11:01;;;;;;;0.45;0.45;;;1.60;99.90;;;;;;5070500;28;20165;-78
2021/11/10 04:13:29;;;;;;;0.30;0.30;;;1.60;99.90;;;;;;5070438;28;20509;-78
2021/11/10 04:15:55;;;;;;;0.10;0.10;;;1.60;99.90;;;;;;5070416;28;20192;-78
2021/11/10 04:18:21;;;;;;;0.10;0.10;;;1.60;99.90;;;;;;5070174;28;20263;-78
2021/11/10 04:20:48;;;;;;;0.85;0.85;;;1.70;99.90;;;;;;5070417;28;20181;-78
2021/11/10 04:23:14;;;;;;;0.10;0.10;;;1.70;99.90;;;;;;5070325;28;20561;-78
2021/11/10 04:25:40;;;;;;;0.10;0.10;;;1.70;99.90;;;;;;5070378;28;20194;-78
2021/11/10 04:28:10;;;;;;;0.10;0.10;;;1.60;99.90;;;;;;5069975;28;20157;-78
2021/11/10 04:30:37;;;;;;;0.10;0.10;;;1.60;99.90;;;;;;5070217;28;20168;-78
2021/11/10 04:33:03;;;;;;;0.17;0.17;;;1.70;99.90;;;;;;5068850;28;20169;-78
2021/11/10 04:35:29;;;;;;;1.35;0.95;;;1.70;99.90;;;;;;5068710;28;20203;-79
2021/11/10 04:37:55;;;;;;;6.13;2.40;;;1.80;99.90;;;;;;5069927;28;20218;-78
2021/11/10 04:40:21;;;;;;;0.20;0.20;;;1.80;99.90;;;;;;5068574;28;20176;-78
2021/11/10 04:42:47;;;;;;;1.85;1.35;;;1.80;99.90;;;;;;5069862;28;20160;-79
2021/11/10 04:45:22;;;;;;;0.38;0.38;;;1.80;99.90;;;;;;5069405;28;20176;-78
2021/11/10 04:47:48;;;;;;;0.40;0.40;;;1.80;99.90;;;;;;5069646;28;20173;-79
2021/11/10 04:50:15;;;;;;;0.60;0.60;;;1.80;99.90;;;;;;5069735;28;20250;-79
2021/11/10 04:52:40;;;;;;;0.10;0.10;;;1.70;99.90;;;;;;5069523;28;20237;-78
2021/11/10 04:55:07;;;;;;;0.17;0.17;;;1.70;99.90;;;;;;5069012;28;20220;-79
2021/11/10 04:57:33;;;;;;;0.20;0.20;;;1.70;99.90;;;;;;5068348;28;20232;-78
2021/11/10 04:59:59;;;;;;;0.32;0.32;;;1.70;99.90;;;;;;5069243;28;20330;-78
2021/11/10 05:02:25;;;;;;;0.52;0.52;;;1.70;99.90;;;;;;5069549;28;20252;-79
2021/11/10 05:04:53;;;;;;;0.10;0.10;;;1.70;99.90;;;;;;5069466;28;20190;-78
2021/11/10 05:07:21;;;;;;;0.82;0.82;;;1.70;99.90;;;;;;5069269;28;20200;-78
2021/11/10 05:09:48;;;;;;;0.10;0.10;;;1.70;99.90;;;;;;5069281;28;20217;-77
2021/11/10 05:12:14;;;;;;;0.10;0.10;;;1.60;99.90;;;;;;5069308;28;20656;-77
2021/11/10 05:14:40;;;;;;;0.10;0.10;;;1.50;99.90;;;;;;5069179;28;20236;-76
2021/11/10 05:17:06;;;;;;;0.10;0.10;;;1.60;99.90;;;;;;5068791;28;20192;-76
2021/11/10 05:19:32;;;;;;;0.10;0.10;;;1.60;99.90;;;;;;5069072;28;20194;-76
2021/11/10 05:21:58;;;;;;;0.38;0.38;;;1.70;99.90;;;;;;5067642;28;20236;-76
2021/11/10 05:24:26;;;;;;;0.00;0.00;;;1.60;99.90;;;;;;5069210;28;20153;-76
2021/11/10 05:26:53;;;;;;;0.10;0.10;;;1.70;99.90;;;;;;5068896;28;20196;-76
2021/11/10 05:29:21;;;;;;;0.10;0.10;;;1.60;99.90;;;;;;5069155;28;20271;-76
2021/11/10 05:31:47;;;;;;;0.10;0.10;;;1.60;99.90;;;;;;5069035;28;20160;-76
2021/11/10 05:34:13;;;;;;;0.80;0.70;;;1.70;99.90;;;;;;5067451;28;20176;-76
2021/11/10 05:36:39;;;;;;;0.50;0.50;;;1.70;99.90;;;;;;5068900;28;20188;-77
2021/11/10 05:39:09;;;;;;;0.10;0.10;;;1.70;99.90;;;;;;5068556;28;20192;-77
2021/11/10 05:41:35;;;;;;;0.10;0.10;;;1.70;99.90;;;;;;5067589;28;20165;-77
2021/11/10 05:44:01;;;;;;;0.10;0.10;;;1.70;99.90;;;;;;5067109;28;20260;-76
2021/11/10 05:46:27;;;;;;;0.10;0.10;;;1.70;99.90;;;;;;5068837;28;20195;-76
2021/11/10 05:48:53;;;;;;;1.17;1.17;;;1.70;99.90;;;;;;5068697;28;20677;-77
2021/11/10 05:51:19;;;;;;;2.35;1.10;;;1.80;99.90;;;;;;5068853;28;20168;-77
2021/11/10 05:53:46;;;;;;;0.20;0.20;;;1.80;99.90;;;;;;5066827;28;20188;-77
2021/11/10 05:56:20;;;;;;;1.25;1.20;;;1.70;99.90;;;;;;5066873;28;20295;-78
2021/11/10 05:58:47;;;;;;;0.10;0.10;;;1.60;99.90;;;;;;5068267;28;20192;-79
2021/11/10 06:01:13;;;;;;;0.30;0.30;;;1.70;99.90;;;;;;5067204;28;20165;-79
2021/11/10 06:03:38;;;;;;;0.32;0.32;;;1.70;99.90;;;;;;5068689;28;20156;-79
2021/11/10 06:06:05;;;;;;;0.10;0.10;;;1.70;99.90;;;;;;5066518;28;20192;-79
2021/11/10 06:08:36;;;;;;;1.10;1.10;;;1.80;99.90;;;;;;5067799;28;20172;-78
2021/11/10 06:11:04;;;;;;;0.10;0.10;;;1.80;99.90;;;;;;5068456;28;20184;-79
2021/11/10 06:13:30;;;;;;;0.60;0.60;;;1.80;99.90;;;;;;5071866;28;20165;-79
2021/11/10 06:15:55;;;;;;;0.30;0.30;;;1.90;99.90;;;;;;5069519;28;20196;-80
2021/11/10 06:18:21;;;;;;;0.10;0.10;;;2.00;99.90;;;;;;5071627;28;20214;-79
2021/11/10 06:20:47;;;;;;;0.45;0.45;;;2.10;99.90;;;;;;5071842;28;20157;-79
2021/11/10 06:23:13;;;;;;;0.45;0.45;;;2.20;99.90;;;;;;5070801;28;20264;-79
2021/11/10 06:25:39;;;;;;;0.30;0.30;;;2.30;99.90;;;;;;5072127;28;20259;-80
2021/11/10 06:28:06;;;;;;;0.10;0.10;;;2.30;99.90;;;;;;5072318;28;20184;-79
2021/11/10 06:30:31;;;;;;;0.10;0.10;;;2.30;99.90;;;;;;5070821;28;20200;-79
2021/11/10 06:33:00;;;;;;;0.10;0.10;;;2.30;99.90;;;;;;5070797;28;20172;-79
2021/11/10 06:35:26;;;;;;;0.22;0.22;;;2.30;99.90;;;;;;5072012;28;20200;-79
2021/11/10 06:37:52;;;;;;;0.30;0.30;;;2.40;99.90;;;;;;5070596;28;20645;-79
2021/11/10 06:40:19;;;;;;;0.63;0.63;;;2.50;99.90;;;;;;5070695;28;20169;-79
2021/11/10 06:42:45;;;;;;;0.20;0.20;;;2.40;99.90;;;;;;5070506;28;20169;-80
2021/11/10 06:45:11;;;;;;;0.15;0.15;;;2.40;99.90;;;;;;5062852;28;20203;-79
2021/11/10 06:47:37;;;;;;;0.15;0.15;;;2.50;99.90;;;;;;5050936;28;20203;-79
2021/11/10 06:50:04;;;;;;;0.55;0.55;;;2.50;99.90;;;;;;5052149;28;20162;-80
2021/11/10 06:52:30;;;;;;;0.10;0.10;;;2.60;99.90;;;;;;5071817;28;20160;-78
2021/11/10 06:54:56;;;;;;;0.10;0.10;;;2.70;99.90;;;;;;5069985;28;20333;-78
2021/11/10 06:57:24;;;;;;;0.10;0.10;;;2.70;99.90;;;;;;5070645;28;20543;-79
2021/11/10 06:59:51;;;;;;;0.50;0.50;;;2.80;99.90;;;;;;5071312;28;20263;-80
2021/11/10 07:02:17;;;;;;;0.22;0.22;;;2.90;99.90;;;;;;5070286;28;20235;-80
2021/11/10 07:04:43;;;;;;;0.10;0.10;;;3.00;99.90;;;;;;5050431;28;20169;-79
2021/11/10 07:07:09;;;;;;;1.02;1.02;;;3.10;99.90;;;;;;5051453;28;20268;-80
2021/11/10 07:09:36;;;;;;;0.10;0.10;;;3.30;99.90;;;;;;5049485;28;20224;-81
2021/11/10 07:12:02;;;;;;;0.20;0.20;;;3.30;99.90;;;;;;5050142;28;20244;-78
2021/11/10 07:14:28;;;;;;;0.10;0.10;;;3.30;99.90;;;;;;5050359;28;20162;-79
2021/11/10 07:16:55;;;;;;;0.10;0.10;;;3.40;99.90;;;;;;5051289;28;20221;-79
2021/11/10 07:19:21;;;;;;;0.30;0.30;;;3.40;99.90;;;;;;5051191;28;20204;-80
2021/11/10 07:21:47;;;;;;;0.10;0.10;;;3.60;99.90;;;;;;5049557;28;20169;-79
2021/11/10 07:24:13;;;;;;;0.32;0.32;;;3.70;99.90;;;;;;5052412;28;20242;-79
2021/11/10 07:26:39;;;;;;;0.10;0.10;;;3.60;99.90;;;;;;5060168;28;20181;-79
2021/11/10 07:29:05;;;;;;;0.75;0.75;;;3.80;99.90;;;;;;5067327;28;20197;-79
2021/11/10 07:31:31;;;;;;;0.77;0.77;;;4.00;99.90;;;;;;5070957;28;20157;-80
2021/11/10 07:33:59;;;;;;;0.10;0.10;;;4.30;99.90;;;;;;5069135;28;20180;-79
2021/11/10 07:36:29;;;;;;;0.08;0.08;;;4.30;99.90;;;;;;5071003;28;20187;-79
2021/11/10 07:38:56;;;;;;;0.20;0.20;;;4.40;99.90;;;;;;5070703;28;20215;-79
2021/11/10 07:41:28;;;;;;;0.45;0.45;;;4.50;99.90;;;;;;5070825;28;20180;-80
2021/11/10 07:43:54;;;;;;;0.10;0.10;;;4.70;99.90;;;;;;5069228;28;20172;-79
2021/11/10 07:46:24;;;;;;;5.57;1.55;;;5.20;99.90;;;;;;5069187;28;20168;-80
2021/11/10 07:48:50;;;;;;;0.30;0.30;;;5.30;99.90;;;;;;5068515;28;20216;-78
2021/11/10 07:51:18;;;;;;;0.65;0.65;;;5.50;99.90;;;;;;5053612;28;20643;-79
2021/11/10 07:53:46;;;;;;;0.30;0.30;;;5.70;99.90;;;;;;5048939;28;20176;-79
2021/11/10 07:56:11;;;;;;;0.40;0.40;;;6.00;99.90;;;;;;5068181;28;20235;-80
2021/11/10 07:58:38;;;;;;;0.10;0.10;;;6.20;99.90;;;;;;5069125;28;20222;-80
2021/11/10 08:01:06;;;;;;;0.98;0.95;;;6.60;99.90;;;;;;5070409;28;20184;-80
2021/11/10 08:03:33;;;;;;;0.10;0.10;;;6.90;99.90;;;;;;5068644;28;20169;-80
2021/11/10 08:06:01;;;;;;;0.10;0.10;;;7.60;99.90;;;;;;5070504;28;20179;-80
2021/11/10 08:08:27;;;;;;;0.25;0.25;;;8.40;99.90;;;;;;5070223;28;20169;-79
2021/11/10 08:10:56;;;;;;;2.13;0.52;;;8.80;99.90;;;;;;5068758;28;20165;-81
2021/11/10 08:13:23;;;;;;;0.10;0.10;;;9.70;99.90;;;;;;5067124;28;20250;-80
2021/11/10 08:15:51;;;;;;;1.00;0.55;;;10.70;99.90;;;;;;5068747;28;20172;-78
2021/11/10 08:18:18;;;;;;;0.08;0.08;;;11.30;99.90;;;;;;5070632;28;20189;-80
2021/11/10 08:20:44;;;;;;;0.10;0.10;;;11.60;99.90;;;;;;5055922;28;20206;-79
2021/11/10 08:23:13;;;;;;;0.25;0.25;;;11.30;99.90;;;;;;5080689;28;20169;-80
2021/11/10 08:25:39;;;;;;;0.25;0.25;;;11.50;99.90;;;;;;5080012;28;20178;-79
2021/11/10 08:28:05;;;;;;;1.42;1.33;;;11.50;99.90;;;;;;5075022;28;20188;-79
2021/11/10 08:30:32;;;;;;;7.93;0.65;;;11.70;99.90;;;;;;5086224;28;20196;-77
2021/11/10 08:32:58;;;;;;;0.28;0.28;;;12.50;99.90;;;;;;5067851;28;20532;-80
2021/11/10 08:35:24;;;;;;;0.20;0.20;;;13.10;99.90;;;;;;5077805;28;20168;-78
2021/11/10 08:37:56;;;;;;;0.82;0.77;;;13.40;99.90;;;;;;5076645;28;20171;-80
2021/11/10 08:40:24;;;;;;;0.30;0.30;;;13.80;99.90;;;;;;5086016;28;20196;-80
2021/11/10 08:42:52;;;;;;;0.20;0.20;;;13.00;99.90;;;;;;5069628;28;20191;-79
2021/11/10 08:45:24;;;;;;;0.82;0.82;;;11.70;99.90;;;;;;5069167;28;20661;-80
2021/11/10 08:47:57;;;;;;;1.73;1.63;;;11.30;99.90;;;;;;5080140;28;20233;-80
2021/11/10 08:50:28;;;;;;;4.00;1.63;;;11.10;99.90;;;;;;5059807;28;20188;-80
2021/11/10 08:52:56;;;;;;;0.10;0.10;;;10.40;99.90;;;;;;5058298;28;20291;-81
2021/11/10 08:55:22;;;;;;;1.50;1.23;;;10.60;99.90;;;;;;5058053;28;20220;-81
2021/11/10 08:57:49;;;;;;;1.38;1.27;;;10.70;99.90;;;;;;5058374;28;20173;-80
2021/11/10 09:00:28;;;;;;;0.60;0.60;;;10.50;99.90;;;;;;5059047;28;20164;-80
2021/11/10 09:02:54;;;;;;;0.75;0.75;;;10.10;99.90;;;;;;5062356;28;20223;-81
2021/11/10 09:05:20;;;;;;;0.20;0.20;;;10.70;99.90;;;;;;5067528;28;20172;-80
2021/11/10 09:07:46;;;;;;;0.77;0.77;;;11.70;99.90;;;;;;5069292;28;20145;-80
2021/11/10 09:10:14;;;;;;;1.42;1.08;;;11.70;99.90;;;;;;5079110;28;20168;-80
2021/11/10 09:12:42;;;;;;;0.70;0.70;;;11.70;99.90;;;;;;5089068;28;20191;-81
2021/11/10 09:15:11;;;;;;;0.15;0.15;;;10.80;99.90;;;;;;5088308;28;20166;-80
2021/11/10 09:17:39;;;;;;;0.30;0.30;;;10.50;99.90;;;;;;5087738;28;20164;-80
2021/11/10 09:20:10;;;;;;;1.50;1.40;;;10.10;99.90;;;;;;5078792;28;20212;-80
2021/11/10 09:22:38;;;;;;;1.15;1.15;;;10.00;99.90;;;;;;5056098;28;20264;-79
2021/11/10 09:25:10;;;;;;;0.35;0.35;;;10.80;99.90;;;;;;5059596;28;20165;-79
2021/11/10 09:27:38;;;;;;;2.10;1.67;;;11.00;99.90;;;;;;5068902;28;20157;-81
2021/11/10 09:30:08;;;;;;;1.20;1.10;;;10.40;99.90;;;;;;5057189;28;20169;-80
2021/11/10 09:32:34;;;;;;;0.35;0.35;;;9.80;99.90;;;;;;5055777;28;20189;-79
2021/11/10 09:35:00;;;;;;;0.20;0.20;;;9.90;99.90;;;;;;5057769;28;20237;-79
2021/11/10 09:37:27;;;;;;;0.10;0.10;;;10.10;99.90;;;;;;5054892;28;21050;-80
2021/11/10 09:39:54;;;;;;;0.75;0.75;;;10.20;99.90;;;;;;5052889;28;20242;-79
2021/11/10 09:42:24;;;;;;;0.10;0.10;;;10.00;99.90;;;;;;5048802;28;20220;-79
2021/11/10 09:44:54;;;;;;;0.30;0.30;;;10.30;99.90;;;;;;5046131;28;20175;-80
2021/11/10 09:47:20;;;;;;;0.20;0.20;;;10.30;99.90;;;;;;5047260;28;20193;-79
2021/11/10 09:49:51;;;;;;;1.00;0.60;;;10.60;99.90;;;;;;5047492;28;20169;-78
2021/11/10 09:52:18;;;;;;;0.22;0.22;;;10.30;99.90;;;;;;5048510;28;20287;-79
2021/11/10 09:54:44;;;;;;;0.20;0.20;;;10.30;99.90;;;;;;5046188;28;20169;-79
2021/11/10 09:57:09;;;;;;;0.45;0.45;;;11.30;99.90;;;;;;5046528;28;20607;-79
2021/11/10 09:59:37;;;;;;;0.38;0.32;;;11.50;99.90;;;;;;5048074;28;20272;-78
2021/11/10 10:02:11;;;;;;;2.67;1.00;;;11.40;99.90;;;;;;5054358;28;20207;-80
2021/11/10 10:04:42;;;;;;;0.15;0.15;;;10.90;99.90;;;;;;5055829;28;20221;-79
2021/11/10 10:07:09;;;;;;;0.35;0.35;;;10.20;99.90;;;;;;5059473;28;20173;-80
2021/11/10 10:09:37;;;;;;;0.43;0.43;;;10.50;99.90;;;;;;5057858;28;20196;-79
2021/11/10 10:12:05;;;;;;;0.10;0.10;;;10.80;99.90;;;;;;5068574;28;20184;-80
2021/11/10 10:14:32;;;;;;;0.57;0.57;;;11.90;99.90;;;;;;5067032;28;20167;-82
2021/11/10 10:17:02;;;;;;;1.35;1.27;;;11.80;99.90;;;;;;5066952;28;20176;-81
2021/11/10 10:19:48;;;;;;;0.20;0.20;;;11.50;99.90;;;;;;5068411;28;20232;-80
2021/11/10 10:22:20;;;;;;;0.75;0.75;;;10.90;99.90;;;;;;5054848;28;20188;-81
2021/11/10 10:24:55;;;;;;;0.00;0.00;;;11.00;99.90;;;;;;5046871;28;20229;-81
2021/11/10 10:27:24;;;;;;;0.20;0.20;;;10.70;99.90;;;;;;5046876;28;20173;-80
2021/11/10 10:30:27;;;;;;;0.45;0.45;;;11.10;99.90;;;;;;5055286;28;20229;-81
2021/11/10 10:33:18;;;;;;;0.10;0.10;;;11.90;99.90;;;;;;5048289;28;20177;-81
2021/11/10 10:35:53;;;;;;;0.25;0.25;;;12.60;99.90;;;;;;5043969;28;20189;-81
2021/11/10 10:38:22;;;;;;;0.40;0.40;;;12.50;99.90;;;;;;5060401;28;20226;-81
2021/11/10 10:40:51;;;;;;;0.85;0.85;;;11.90;99.90;;;;;;5068257;28;20206;-81
2021/11/10 10:43:22;;;;;;;0.22;0.22;;;11.70;99.90;;;;;;5066391;28;20172;-80
2021/11/10 10:45:51;;;;;;;2.05;0.82;;;11.20;99.90;;;;;;5068447;28;20168;-81
2021/11/10 10:48:20;;;;;;;0.55;0.55;;;11.20;99.90;;;;;;5066836;28;20195;-81
2021/11/10 10:50:53;;;;;;;0.20;0.20;;;11.40;99.90;;;;;;5066873;28;20226;-79
2021/11/10 10:53:46;;;;;;;6.05;0.65;;;11.30;99.90;;;;;;5067563;28;20153;-81
2021/11/10 10:56:30;;;;;;;0.57;0.55;;;11.10;99.90;;;;;;5053421;28;20292;-81
2021/11/10 10:59:01;;;;;;;0.47;0.47;;;11.10;99.90;;;;;;5051882;28;20177;-79
2021/11/10 11:01:29;;;;;;;1.05;1.05;;;11.50;99.90;;;;;;5060562;28;20161;-77
2021/11/10 11:04:10;;;;;;;3.05;2.05;;;11.30;99.90;;;;;;5059203;28;20189;-79
2021/11/10 11:06:40;;;;;;;0.77;0.77;;;11.20;99.90;;;;;;5058031;28;20204;-78
2021/11/10 11:09:12;;;;;;;0.47;0.47;;;11.30;99.90;;;;;;5071239;28;20192;-79
2021/11/10 11:11:40;;;;;;;0.70;0.52;;;12.00;99.90;;;;;;5058617;28;20181;-76
2021/11/10 11:14:15;;;;;;;1.55;1.33;;;12.70;99.90;;;;;;5051092;28;20528;-79
2021/11/10 11:16:43;;;;;;;0.70;0.70;;;13.10;99.90;;;;;;5051337;28;20157;-78
2021/11/10 11:19:18;;;;;;;0.32;0.32;;;13.80;99.90;;;;;;5051291;28;20208;-77
2021/11/10 11:22:00;;;;;;;0.35;0.35;;;13.60;99.90;;;;;;5060964;28;20173;-78
2021/11/10 11:24:35;;;;;;;0.47;0.47;;;14.20;99.90;;;;;;5049482;28;20220;-78
2021/11/10 11:27:15;;;;;;;0.25;0.25;;;14.00;99.90;;;;;;5057386;28;20187;-78
2021/11/10 11:29:42;;;;;;;0.55;0.55;;;13.50;99.90;;;;;;5069933;28;20266;-78
2021/11/10 11:32:31;;;;;;;13.38;0.80;;;14.10;99.90;;;;;;5069739;28;20192;-78
2021/11/10 11:35:27;;;;;;;0.20;0.20;;;14.20;99.90;;;;;;5069026;28;20218;-77
2021/11/10 11:37:54;;;;;;;1.75;1.65;;;14.00;99.90;;;;;;5068236;28;20267;-77
2021/11/10 11:40:22;;;;;;;1.65;0.90;;;13.90;99.90;;;;;;5070809;28;20161;-78
2021/11/10 11:42:52;;;;;;;0.10;0.10;;;13.60;99.90;;;;;;5069581;28;20173;-78
2021/11/10 11:45:19;;;;;;;0.28;0.28;;;14.10;99.90;;;;;;5070319;28;20259;-77
2021/11/10 11:47:50;;;;;;;0.43;0.43;;;13.60;99.90;;;;;;5069343;28;20233;-78
2021/11/10 11:50:17;;;;;;;0.57;0.57;;;13.80;99.90;;;;;;5070828;28;20157;-78
2021/11/10 11:52:44;;;;;;;0.15;0.15;;;14.00;99.90;;;;;;5070897;28;20176;-78
2021/11/10 11:55:22;;;;;;;5.57;0.65;;;13.10;99.90;;;;;;5069747;28;20304;-78
2021/11/10 11:58:22;;;;;;;0.00;0.00;;;12.10;99.90;;;;;;5070633;28;20184;-78
2021/11/10 12:00:57;;;;;;;0.10;0.10;;;11.30;99.90;;;;;;5070268;28;20193;-77
2021/11/10 12:03:53;;;;;;;0.47;0.47;;;11.40;99.90;;;;;;5070570;28;20160;-78
2021/11/10 12:06:20;;;;;;;0.10;0.10;;;11.40;99.90;;;;;;5068143;28;20200;-78
2021/11/10 12:08:50;;;;;;;1.20;1.17;;;11.80;99.90;;;;;;5069400;28;20228;-78
2021/11/10 12:11:36;;;;;;;0.73;0.30;;;11.70;99.90;;;;;;5070462;28;20183;-77
2021/11/10 12:14:09;;;;;;;0.85;0.85;;;11.40;99.90;;;;;;5068458;28;20184;-78
2021/11/10 12:17:08;;;;;;;0.47;0.47;;;10.80;99.90;;;;;;5068868;28;20177;-79
2021/11/10 12:19:40;;;;;;;0.43;0.43;;;10.40;99.90;;;;;;5067247;28;20208;-77
2021/11/10 12:22:15;;;;;;;8.10;1.65;;;10.10;99.90;;;;;;5065618;28;20176;-78
2021/11/10 12:24:48;;;;;;;0.22;0.22;;;10.30;99.90;;;;;;5070096;28;20188;-78
2021/11/10 12:27:38;;;;;;;0.68;0.68;;;10.30;99.90;;;;;;5063149;28;20181;-79
2021/11/10 12:30:10;;;;;;;0.50;0.50;;;10.40;99.90;;;;;;5069285;28;20267;-79
2021/11/10 12:32:36;;;;;;;3.17;1.83;;;10.30;99.90;;;;;;5068713;28;20177;-80
2021/11/10 12:35:04;;;;;;;0.20;0.20;;;10.10;99.90;;;;;;5069760;28;20215;-79
2021/11/10 12:37:38;;;;;;;0.10;0.10;;;10.20;99.90;;;;;;5068081;28;20566;-79
2021/11/10 12:40:16;;;;;;;0.15;0.15;;;10.10;99.90;;;;;;5069815;28;20208;-79
2021/11/10 12:43:00;;;;;;;0.10;0.10;;;10.30;99.90;;;;;;5069863;28;20153;-79
2021/11/10 12:45:38;;;;;;;1.23;0.93;;;10.10;99.90;;;;;;5069177;28;20219;-78
2021/11/10 12:48:10;;;;;;;0.10;0.10;;;10.00;99.90;;;;;;5061706;28;20173;-80
2021/11/10 12:50:43;;;;;;;0.90;0.90;;;10.00;99.90;;;;;;5054586;28;20237;-79
2021/11/10 12:53:12;;;;;;;0.43;0.43;;;9.70;99.90;;;;;;5066726;28;20165;-79
2021/11/10 12:55:56;;;;;;;0.65;0.65;;;9.70;99.90;;;;;;5064949;28;20262;-79
2021/11/10 12:58:24;;;;;;;1.10;0.85;;;9.80;99.90;;;;;;5049271;28;20193;-79
2021/11/10 13:00:57;;;;;;;0.35;0.35;;;10.00;99.90;;;;;;5048233;28;20165;-79
2021/11/10 13:03:32;;;;;;;0.50;0.50;;;10.20;99.90;;;;;;5047686;28;20241;-79